Observations for AMSTERDAM SCHIPHOL, Netherlands (EHAM)

EHAM 141155Z 13010KT 100V160 9999 FEW018 07/04 Q1001 NOSIG  
EHAM 141125Z 13009KT 090V150 9999 -RADZ FEW026 07/04 Q1000 NOSIG
EHAM 141055Z 11007KT 080V140 9999 FEW045 07/05 Q1001 NOSIG  
EHAM 141025Z 12009KT CAVOK 06/04 Q1000 NOSIG
EHAM 140955Z 11010KT CAVOK 06/04 Q1000 NOSIG
EHAM 140925Z 11012KT 090V150 CAVOK 05/04 Q1000 NOSIG
EHAM 140855Z 12012KT CAVOK 05/04 Q0999 NOSIG
EHAM 140825Z 11012KT CAVOK 05/03 Q0999 NOSIG
EHAM 140755Z 11013KT 080V140 CAVOK 05/03 Q0999 NOSIG
EHAM 140725Z 12012KT CAVOK 05/03 Q0999 NOSIG
EHAM 140655Z 12012KT CAVOK 05/03 Q0999 NOSIG
EHAM 140625Z 11011KT CAVOK 04/03 Q0998 NOSIG
EHAM 140555Z 12010KT CAVOK 04/03 Q0998 NOSIG
EHAM 140525Z 11011KT CAVOK 04/03 Q0998 NOSIG
EHAM 140455Z 11009KT CAVOK 04/03 Q0998 NOSIG
EHAM 140425Z 12009KT CAVOK 04/03 Q0998 NOSIG
EHAM 140355Z 11008KT CAVOK 04/03 Q0998 NOSIG
EHAM 140325Z 11008KT 080V140 CAVOK 04/03 Q0998 NOSIG
EHAM 140255Z 13009KT 100V160 CAVOK 04/03 Q0998 NOSIG
EHAM 140225Z 13009KT CAVOK 04/03 Q0998 NOSIG
EHAM 140155Z 14009KT CAVOK 04/03 Q0998 NOSIG
EHAM 140125Z 14009KT CAVOK 04/03 Q0998 NOSIG
EHAM 140055Z 14008KT CAVOK 04/04 Q0998 NOSIG
EHAM 140025Z 14008KT 9999 FEW008 05/04 Q0998 NOSIG  
EHAM 132355Z 13008KT CAVOK 05/04 Q0998 NOSIG
EHAM 132325Z 14009KT 120V180 9999 FEW011 05/04 Q0998 NOSIG  
EHAM 132255Z 14009KT 9999 SCT012 05/05 Q0998 NOSIG  
EHAM 132225Z 14009KT CAVOK 05/04 Q0998 NOSIG
EHAM 132155Z 14007KT 9999 FEW041 05/04 Q0998 NOSIG  
EHAM 132125Z 14008KT 9999 FEW037 04/04 Q0999 NOSIG  
EHAM 132055Z 13007KT 9999 FEW047 04/04 Q0999 NOSIG  
EHAM 132025Z 15007KT 9999 FEW025 04/04 Q0999 NOSIG  
EHAM 131955Z 14006KT 9999 FEW030 04/04 Q0999 NOSIG  
EHAM 131925Z 14007KT 9999 FEW049 04/04 Q0999 NOSIG  
EHAM 131855Z 14008KT 9999 FEW028 05/04 Q0999 NOSIG  
EHAM 131825Z 13007KT 9999 FEW022 05/04 Q0999 NOSIG  
EHAM 131755Z 12003KT 100V160 9999 VCSH FEW018 SCT033 05/04 Q0999 RESHRA NOSIG   
EHAM 131725Z 16005KT 9999 SHRA FEW018 SCT025CB 05/04 Q0999 BECMG 9999 NSW   
EHAM 131655Z 18008KT 9999 VCSH FEW018 FEW025CB 06/04 Q0999 TEMPO 7000 -SHRA 
EHAM 131625Z 19011KT 8000 -SHRA FEW009 SCT025CB BKN030 06/04 Q0999 NOSIG
EHAM 131555Z 18007KT 9999 VCSH FEW012 FEW020CB BKN030 06/05 Q0999 RESHRA TEMPO 7000 -SHRA   
EHAM 131525Z 20013KT 9999 -SHRA FEW012 FEW020CB BKN024 07/04 Q0999 TEMPO 7000 SHRA  
EHAM 131455Z 20013KT 9999 VCSH FEW016 FEW020CB BKN024 07/05 Q0999 TEMPO 7000 SHRA   
EHAM 131425Z 24006KT 210V280 9999 VCSH FEW027CB 09/05 Q0999 NOSIG   
EHAM 131355Z 26007KT 240V300 9999 VCSH FEW025CB FEW030 09/05 Q0999 NOSIG
EHAM 131325Z 22006KT 190V270 9999 -SHRA FEW025CB FEW030 09/06 Q0999 NOSIG   
EHAM 131255Z 18006KT 9999 FEW018 FEW025CB 09/06 Q0999 NOSIG 
EHAM 131225Z 20007KT 150V230 9999 FEW025 08/06 Q0999 NOSIG  
EHAM 131155Z 25006KT 9999 VCSH FEW015 FEW025CB SCT045 07/05 Q0999 RESHRA NOSIG  
EHAM 131125Z 29014KT 260V320 9999 -SHRA FEW015 SCT025CB SCT035 08/04 Q0999 TEMPO 6000 TSRAGS